createdAt,value
2019-01-10T00:00:25.004Z,2.17
2019-01-10T00:02:54.259Z,2.27
2019-01-10T00:05:23.659Z,1.70
2019-01-10T00:07:52.547Z,1.80
2019-01-10T00:10:21.531Z,1.60
2019-01-10T00:12:50.478Z,1.53
2019-01-10T00:15:19.503Z,2.23
2019-01-10T00:17:50.126Z,2.30
2019-01-10T00:20:19.348Z,2.50
2019-01-10T00:22:48.246Z,2.20
2019-01-10T00:25:17.221Z,2.00
2019-01-10T00:27:46.193Z,2.27
2019-01-10T00:30:17.193Z,2.03
2019-01-10T00:32:46.110Z,2.13
2019-01-10T00:35:15.120Z,2.20
2019-01-10T00:37:44.091Z,2.10
2019-01-10T00:40:14.845Z,2.10
2019-01-10T00:42:49.760Z,1.47
2019-01-10T00:45:16.397Z,1.33
2019-01-10T00:47:45.388Z,1.57
2019-01-10T00:50:22.279Z,1.60
2019-01-10T00:52:51.379Z,2.00
2019-01-10T00:55:20.366Z,1.53
2019-01-10T00:57:49.317Z,1.40
2019-01-10T01:00:24.031Z,2.03
2019-01-10T01:02:53.403Z,1.80
2019-01-10T01:05:22.773Z,1.73
2019-01-10T01:07:51.894Z,1.93
2019-01-10T01:10:22.875Z,1.70
2019-01-10T01:12:58.397Z,1.70
2019-01-10T01:15:23.387Z,1.97
2019-01-10T01:17:52.285Z,2.10
2019-01-10T01:20:23.014Z,1.67
2019-01-10T01:22:51.980Z,2.30
2019-01-10T01:25:20.961Z,1.57
2019-01-10T01:27:49.927Z,1.30
2019-01-10T01:30:20.716Z,1.43
2019-01-10T01:32:50.363Z,1.60
2019-01-10T01:35:21.522Z,1.67
2019-01-10T01:37:50.111Z,1.70
2019-01-10T01:40:20.026Z,1.60
2019-01-10T01:42:48.995Z,2.20
2019-01-10T01:45:19.324Z,1.07
2019-01-10T01:47:48.321Z,1.43
2019-01-10T01:50:19.366Z,1.93
2019-01-10T01:52:48.854Z,1.87
2019-01-10T01:55:17.823Z,1.20
2019-01-10T01:57:47.299Z,1.87
2019-01-10T02:00:19.298Z,1.83
2019-01-10T02:02:48.338Z,1.80
2019-01-10T02:05:17.531Z,1.57
2019-01-10T02:07:46.496Z,1.90
2019-01-10T02:10:21.320Z,2.33
2019-01-10T02:12:50.402Z,2.17
2019-01-10T02:15:19.573Z,1.20
2019-01-10T02:17:49.391Z,1.40
2019-01-10T02:20:18.619Z,1.47
2019-01-10T02:22:47.631Z,1.47
2019-01-10T02:25:16.845Z,1.50
2019-01-10T02:27:45.816Z,1.27
2019-01-10T02:30:17.902Z,1.70
2019-01-10T02:32:47.175Z,1.40
2019-01-10T02:35:17.099Z,1.87
2019-01-10T02:37:46.103Z,2.13
2019-01-10T02:40:15.012Z,2.50
2019-01-10T02:42:44.032Z,1.90
2019-01-10T02:45:14.165Z,2.03
2019-01-10T02:47:43.042Z,1.70
2019-01-10T02:50:15.446Z,2.20
2019-01-10T02:52:44.381Z,1.70
2019-01-10T02:55:13.370Z,2.67
2019-01-10T02:57:42.352Z,2.00
2019-01-10T03:00:14.589Z,3.00
2019-01-10T03:02:43.535Z,2.30
2019-01-10T03:05:12.615Z,2.10
2019-01-10T03:07:41.539Z,1.33
2019-01-10T03:10:12.418Z,2.13
2019-01-10T03:12:41.311Z,1.70
2019-01-10T03:15:10.282Z,1.63
2019-01-10T03:17:39.184Z,1.80
2019-01-10T03:20:10.929Z,2.60
2019-01-10T03:22:39.813Z,2.27
2019-01-10T03:25:09.428Z,1.43
2019-01-10T03:27:57.601Z,2.40
2019-01-10T03:30:26.476Z,1.87
2019-01-10T03:32:55.364Z,3.27
2019-01-10T03:35:24.186Z,3.17
2019-01-10T03:37:53.105Z,2.40
2019-01-10T03:40:22.534Z,2.00
2019-01-10T03:42:51.443Z,2.23
2019-01-10T03:45:21.818Z,2.50
2019-01-10T03:47:50.799Z,1.70
2019-01-10T03:50:19.794Z,2.07
2019-01-10T03:52:48.695Z,2.27
2019-01-10T03:55:17.679Z,2.13
2019-01-10T03:57:46.581Z,1.93
2019-01-10T04:00:21.132Z,2.33
2019-01-10T04:02:50.299Z,1.87
2019-01-10T04:05:19.275Z,3.00
2019-01-10T04:07:48.546Z,2.00
2019-01-10T04:10:17.643Z,1.90
2019-01-10T04:12:46.532Z,1.37
2019-01-10T04:15:16.454Z,1.80
2019-01-10T04:17:45.559Z,2.07
2019-01-10T04:20:16.344Z,1.90
2019-01-10T04:22:45.423Z,2.70
2019-01-10T04:25:15.062Z,3.40
2019-01-10T04:27:44.124Z,2.10
2019-01-10T04:30:18.358Z,2.10
2019-01-10T04:32:47.441Z,1.37
2019-01-10T04:35:16.438Z,2.70
2019-01-10T04:37:45.297Z,1.67
2019-01-10T04:40:16.699Z,1.63
2019-01-10T04:42:45.752Z,1.77
2019-01-10T04:45:14.821Z,3.60
2019-01-10T04:47:43.795Z,2.07
2019-01-10T04:50:12.800Z,1.73
2019-01-10T04:52:41.696Z,1.80
2019-01-10T04:55:10.977Z,2.13
2019-01-10T04:57:40.005Z,1.53
2019-01-10T05:00:13.219Z,1.70
2019-01-10T05:02:42.101Z,1.60
2019-01-10T05:05:11.100Z,2.97
2019-01-10T05:07:39.996Z,1.83
2019-01-10T05:10:09.631Z,1.90
2019-01-10T05:12:38.558Z,2.20
2019-01-10T05:15:07.998Z,2.80
2019-01-10T05:17:36.979Z,1.50
2019-01-10T05:20:07.737Z,2.50
2019-01-10T05:22:36.648Z,1.30
2019-01-10T05:25:06.203Z,2.40
2019-01-10T05:27:35.123Z,2.13
2019-01-10T05:30:05.164Z,2.73
2019-01-10T05:32:34.331Z,1.80
2019-01-10T05:35:03.327Z,2.80
2019-01-10T05:37:32.146Z,1.40
2019-01-10T05:40:01.039Z,2.67
2019-01-10T05:42:29.883Z,2.30
2019-01-10T05:44:58.970Z,2.30
2019-01-10T05:47:27.817Z,2.00
2019-01-10T05:49:56.640Z,1.90
2019-01-10T05:52:25.556Z,1.70
2019-01-10T05:54:54.374Z,3.73
2019-01-10T05:57:23.239Z,1.90
2019-01-10T05:59:52.265Z,1.67
2019-01-10T06:02:21.099Z,2.20
2019-01-10T06:04:49.924Z,1.80
2019-01-10T06:07:18.830Z,1.37
2019-01-10T06:09:47.695Z,1.80
2019-01-10T06:12:16.575Z,1.73
2019-01-10T06:14:45.539Z,1.53
2019-01-10T06:17:14.384Z,1.80
2019-01-10T06:19:43.394Z,2.17
2019-01-10T06:22:12.532Z,2.60
2019-01-10T06:24:41.399Z,2.80
2019-01-10T06:27:10.376Z,1.77
2019-01-10T06:29:39.358Z,1.77
2019-01-10T06:32:08.304Z,3.60
2019-01-10T06:34:37.298Z,2.27
2019-01-10T06:37:06.231Z,2.43
2019-01-10T06:39:35.151Z,2.57
2019-01-10T06:42:04.201Z,2.53
2019-01-10T06:44:33.030Z,2.07
2019-01-10T06:47:01.859Z,2.10
2019-01-10T06:49:30.672Z,1.53
2019-01-10T06:51:59.470Z,2.30
2019-01-10T06:54:28.327Z,1.73
2019-01-10T06:56:57.147Z,2.17
2019-01-10T06:59:26.084Z,2.33
2019-01-10T07:01:54.972Z,2.23
2019-01-10T07:04:23.806Z,1.80
2019-01-10T07:06:52.651Z,2.23
2019-01-10T07:09:21.652Z,1.93
2019-01-10T07:11:50.501Z,2.17
2019-01-10T07:14:19.340Z,1.97
2019-01-10T07:16:53.444Z,2.00
2019-01-10T07:19:44.580Z,2.33
2019-01-10T07:22:14.687Z,2.10
2019-01-10T07:24:53.135Z,1.57
2019-01-10T07:27:22.036Z,2.60
2019-01-10T07:29:55.429Z,1.90
2019-01-10T07:32:24.476Z,2.27
2019-01-10T07:34:59.274Z,1.83
2019-01-10T07:37:28.115Z,2.23
2019-01-10T07:39:56.994Z,2.80
2019-01-10T07:42:28.044Z,2.17
2019-01-10T07:45:02.632Z,1.80
2019-01-10T07:47:47.015Z,2.60
2019-01-10T07:50:16.516Z,2.20
2019-01-10T07:52:46.083Z,1.93
2019-01-10T07:55:15.209Z,2.30
2019-01-10T07:57:44.196Z,1.77
2019-01-10T08:00:14.592Z,2.20
2019-01-10T08:02:43.558Z,2.70
2019-01-10T08:05:12.822Z,2.50
2019-01-10T08:07:41.785Z,2.30
2019-01-10T08:10:13.178Z,2.30
2019-01-10T08:12:42.131Z,3.13
2019-01-10T08:15:16.426Z,3.63
2019-01-10T08:17:45.393Z,2.30
2019-01-10T08:20:14.732Z,2.67
2019-01-10T08:22:44.132Z,1.93
2019-01-10T08:25:13.185Z,2.87
2019-01-10T08:27:42.256Z,2.37
2019-01-10T08:30:14.960Z,2.10
2019-01-10T08:32:43.962Z,2.33
2019-01-10T08:35:14.167Z,2.10
2019-01-10T08:37:43.148Z,2.50
2019-01-10T08:40:12.304Z,2.30
2019-01-10T08:42:41.271Z,2.00
2019-01-10T08:45:10.856Z,3.27
2019-01-10T08:47:39.762Z,3.03
2019-01-10T08:50:12.721Z,2.17
2019-01-10T08:52:41.554Z,2.00
2019-01-10T08:55:10.514Z,2.07
2019-01-10T08:57:39.362Z,2.23
2019-01-10T09:00:11.450Z,2.30
2019-01-10T09:02:40.353Z,2.60
2019-01-10T09:05:09.699Z,2.63
2019-01-10T09:07:38.511Z,2.37
2019-01-10T09:10:11.738Z,2.70
2019-01-10T09:12:40.720Z,3.17
2019-01-10T09:15:09.739Z,2.43
2019-01-10T09:17:38.660Z,1.90
2019-01-10T09:20:08.572Z,2.67
2019-01-10T09:22:37.494Z,2.60
2019-01-10T09:25:06.696Z,2.50
2019-01-10T09:27:35.674Z,3.10
2019-01-10T09:30:06.649Z,1.90
2019-01-10T09:32:35.566Z,1.63
2019-01-10T09:35:04.887Z,2.60
2019-01-10T09:37:33.775Z,2.03
2019-01-10T09:40:03.282Z,3.13
2019-01-10T09:42:32.304Z,2.37
2019-01-10T09:45:01.192Z,2.50
2019-01-10T09:47:30.002Z,2.80
2019-01-10T09:49:58.916Z,3.10
2019-01-10T09:52:27.882Z,2.50
2019-01-10T09:54:56.772Z,2.27
2019-01-10T09:57:25.654Z,3.80
2019-01-10T09:59:54.486Z,2.10
2019-01-10T10:02:23.448Z,2.50
2019-01-10T10:04:52.255Z,2.37
2019-01-10T10:07:21.096Z,3.17
2019-01-10T10:09:49.996Z,2.60
2019-01-10T10:12:18.902Z,2.33
2019-01-10T10:14:47.725Z,3.73
2019-01-10T10:17:16.567Z,3.33
2019-01-10T10:19:45.531Z,2.73
2019-01-10T10:22:14.388Z,1.90
2019-01-10T10:24:43.527Z,2.87
2019-01-10T10:27:12.400Z,1.70
2019-01-10T10:29:41.219Z,2.17
2019-01-10T10:32:10.236Z,3.00
2019-01-10T10:34:39.054Z,1.60
2019-01-10T10:37:08.045Z,1.90
2019-01-10T10:39:37.183Z,3.00
2019-01-10T10:42:07.188Z,3.00
2019-01-10T10:44:36.032Z,2.43
2019-01-10T10:47:05.026Z,2.37
2019-01-10T10:49:34.176Z,2.67
2019-01-10T10:52:03.224Z,3.70
2019-01-10T10:54:32.094Z,2.40
2019-01-10T10:57:01.934Z,2.40
2019-01-10T10:59:30.744Z,2.60
2019-01-10T11:01:59.686Z,2.60
2019-01-10T11:04:28.588Z,2.37
2019-01-10T11:06:57.445Z,3.10
2019-01-10T11:09:26.385Z,4.00
2019-01-10T11:11:55.471Z,3.07
2019-01-10T11:14:24.354Z,2.50
2019-01-10T11:16:53.338Z,3.47
2019-01-10T11:19:22.197Z,3.67
2019-01-10T11:21:51.088Z,2.70
2019-01-10T11:24:20.068Z,3.00
2019-01-10T11:26:48.969Z,3.97
2019-01-10T11:29:17.782Z,2.17
2019-01-10T11:31:46.696Z,3.13
2019-01-10T11:34:15.609Z,3.43
2019-01-10T11:36:44.498Z,2.70
2019-01-10T11:39:13.402Z,2.77
2019-01-10T11:41:42.414Z,2.57
2019-01-10T11:44:11.384Z,2.60
2019-01-10T11:46:40.271Z,3.07
2019-01-10T11:49:09.193Z,2.90
2019-01-10T11:51:38.003Z,3.20
2019-01-10T11:54:06.976Z,3.40
2019-01-10T11:56:35.972Z,3.10
2019-01-10T11:59:05.014Z,3.17
2019-01-10T12:01:34.007Z,2.83
2019-01-10T12:04:02.918Z,3.00
2019-01-10T12:06:31.910Z,3.90
2019-01-10T12:09:00.815Z,3.53
2019-01-10T12:11:29.708Z,3.80
2019-01-10T12:13:58.641Z,3.83
2019-01-10T12:16:28.709Z,2.50
2019-01-10T12:18:59.333Z,2.90
2019-01-10T12:21:28.526Z,3.27
2019-01-10T12:23:57.535Z,2.57
2019-01-10T12:26:26.463Z,3.10
2019-01-10T12:28:54.659Z,4.25
2019-01-10T12:31:23.548Z,2.37
2019-01-10T12:33:52.828Z,2.77
2019-01-10T12:36:21.826Z,2.87
2019-01-10T12:38:50.698Z,2.80
2019-01-10T12:41:19.548Z,2.70
2019-01-10T12:43:48.714Z,2.40
2019-01-10T12:46:17.594Z,2.40
2019-01-10T12:48:46.586Z,2.30
2019-01-10T12:51:15.479Z,2.40
2019-01-10T12:53:44.430Z,2.37
2019-01-10T12:56:13.420Z,2.53
2019-01-10T12:58:42.426Z,2.33
2019-01-10T13:01:11.315Z,2.57
2019-01-10T13:03:40.295Z,2.23
2019-01-10T13:06:09.303Z,2.33
2019-01-10T13:08:38.182Z,2.70
2019-01-10T13:11:07.186Z,2.80
2019-01-10T13:13:36.085Z,2.13
2019-01-10T13:16:05.008Z,1.90
2019-01-10T13:18:33.830Z,2.83
2019-01-10T13:21:02.717Z,2.80
2019-01-10T13:23:31.622Z,2.20
2019-01-10T13:26:00.586Z,2.27
2019-01-10T13:28:29.509Z,2.20
2019-01-10T13:30:58.448Z,2.80
2019-01-10T13:33:27.355Z,2.73
2019-01-10T13:35:56.267Z,2.20
2019-01-10T13:38:25.101Z,2.50
2019-01-10T13:40:54.018Z,2.10
2019-01-10T13:43:22.891Z,2.30
2019-01-10T13:45:51.732Z,2.10
2019-01-10T13:48:20.731Z,1.90
2019-01-10T13:50:49.679Z,1.80
2019-01-10T13:53:18.638Z,1.87
2019-01-10T13:55:47.511Z,2.60
2019-01-10T13:58:16.471Z,2.30
2019-01-10T14:00:45.374Z,3.00
2019-01-10T14:03:14.399Z,1.87
2019-01-10T14:05:43.226Z,1.90
2019-01-10T14:08:12.191Z,2.30
2019-01-10T14:10:41.071Z,2.10
2019-01-10T14:13:10.154Z,2.23
2019-01-10T14:15:39.109Z,2.40
2019-01-10T14:18:08.503Z,2.23
2019-01-10T14:20:37.555Z,2.67
2019-01-10T14:23:06.614Z,2.13
2019-01-10T14:25:35.532Z,2.07
2019-01-10T14:28:04.888Z,2.60
2019-01-10T14:30:37.367Z,2.20
2019-01-10T14:33:09.163Z,2.27
2019-01-10T14:35:38.149Z,1.80
2019-01-10T14:38:07.119Z,2.13
2019-01-10T14:40:36.313Z,2.17
2019-01-10T14:43:05.686Z,1.90
2019-01-10T14:45:36.619Z,2.60
2019-01-10T14:48:06.132Z,1.70
2019-01-10T14:50:35.192Z,2.03
2019-01-10T14:53:04.922Z,3.10
2019-01-10T14:55:33.866Z,1.80
2019-01-10T14:58:02.814Z,2.20
2019-01-10T15:00:31.654Z,1.50
2019-01-10T15:03:00.631Z,1.80
2019-01-10T15:05:34.383Z,1.83
2019-01-10T15:08:00.514Z,2.43
2019-01-10T15:10:29.459Z,2.00
2019-01-10T15:12:58.399Z,2.47
2019-01-10T15:15:27.345Z,2.20
2019-01-10T15:17:56.238Z,1.97
2019-01-10T15:20:30.804Z,1.67
2019-01-10T15:22:59.975Z,1.77
2019-01-10T15:25:28.959Z,1.40
2019-01-10T15:27:57.922Z,1.80
2019-01-10T15:30:28.239Z,1.60
2019-01-10T15:32:57.361Z,1.60
2019-01-10T15:35:26.350Z,1.70
2019-01-10T15:37:55.222Z,2.27
2019-01-10T15:40:26.593Z,1.63
2019-01-10T15:42:55.559Z,1.60
2019-01-10T15:45:24.644Z,1.57
2019-01-10T15:47:53.614Z,1.73
2019-01-10T15:50:22.602Z,1.40
2019-01-10T15:52:51.479Z,1.63
2019-01-10T15:55:21.461Z,1.17
2019-01-10T15:57:50.564Z,1.73
2019-01-10T16:00:21.428Z,1.10
2019-01-10T16:02:51.111Z,1.37
2019-01-10T16:05:20.275Z,1.33
2019-01-10T16:07:49.269Z,1.23
2019-01-10T16:10:19.685Z,1.40
2019-01-10T16:12:49.758Z,1.23
2019-01-10T16:15:24.039Z,1.43
2019-01-10T16:17:53.010Z,1.30
2019-01-10T16:20:22.015Z,1.37
2019-01-10T16:22:51.094Z,1.57
2019-01-10T16:25:20.022Z,1.53
2019-01-10T16:27:49.455Z,1.00
2019-01-10T16:30:23.613Z,1.23
2019-01-10T16:32:52.570Z,1.83
2019-01-10T16:35:21.559Z,1.40
2019-01-10T16:37:50.728Z,1.17
2019-01-10T16:40:19.858Z,1.33
2019-01-10T16:42:48.827Z,1.20
2019-01-10T16:45:26.162Z,1.53
2019-01-10T16:47:55.136Z,2.23
2019-01-10T16:50:24.029Z,2.17
2019-01-10T16:52:53.066Z,2.10
2019-01-10T16:55:22.113Z,1.43
2019-01-10T16:57:51.175Z,1.60
2019-01-10T17:00:31.687Z,1.23
2019-01-10T17:03:00.802Z,1.47
2019-01-10T17:05:29.713Z,1.20
2019-01-10T17:07:58.694Z,2.00
2019-01-10T17:10:27.694Z,1.47
2019-01-10T17:12:56.551Z,2.00
2019-01-10T17:15:25.463Z,1.37
2019-01-10T17:17:54.489Z,1.30
2019-01-10T17:20:25.434Z,1.80
2019-01-10T17:22:54.331Z,1.17
2019-01-10T17:25:23.328Z,1.33
2019-01-10T17:27:52.424Z,1.53
2019-01-10T17:30:29.668Z,1.50
2019-01-10T17:32:58.890Z,1.30
2019-01-10T17:35:30.391Z,1.67
2019-01-10T17:37:59.444Z,1.30
2019-01-10T17:40:28.542Z,1.70
2019-01-10T17:42:57.738Z,1.20
2019-01-10T17:45:31.359Z,1.70
2019-01-10T17:48:00.474Z,1.30
2019-01-10T17:50:29.390Z,1.67
2019-01-10T17:52:58.207Z,1.43
2019-01-10T17:55:27.114Z,1.30
2019-01-10T17:57:56.222Z,1.00
2019-01-10T18:00:27.875Z,1.87
2019-01-10T18:02:56.977Z,1.60
2019-01-10T18:05:26.513Z,1.90
2019-01-10T18:07:55.563Z,1.97
2019-01-10T18:10:24.814Z,1.90
2019-01-10T18:12:54.071Z,2.17
2019-01-10T18:15:23.328Z,1.70
2019-01-10T18:17:52.434Z,2.40
2019-01-10T18:20:24.032Z,1.53
2019-01-10T18:22:53.060Z,1.97
2019-01-10T18:25:22.018Z,1.83
2019-01-10T18:27:50.970Z,1.40
2019-01-10T18:30:21.529Z,2.33
2019-01-10T18:32:50.727Z,1.60
2019-01-10T18:35:25.563Z,1.40
2019-01-10T18:37:50.804Z,1.43
2019-01-10T18:40:19.807Z,1.73
2019-01-10T18:42:48.734Z,1.53
2019-01-10T18:45:20.145Z,1.67
2019-01-10T18:47:49.138Z,1.70
2019-01-10T18:50:19.964Z,1.67
2019-01-10T18:52:48.975Z,1.97
2019-01-10T18:55:17.939Z,2.00
2019-01-10T18:58:06.235Z,2.20
2019-01-10T19:00:35.227Z,1.83
2019-01-10T19:03:04.347Z,1.77
2019-01-10T19:05:33.339Z,1.83
2019-01-10T19:08:02.354Z,2.30
2019-01-10T19:10:31.292Z,2.00
2019-01-10T19:13:00.266Z,2.10
2019-01-10T19:15:29.266Z,1.80
2019-01-10T19:18:03.397Z,2.50
2019-01-10T19:20:38.233Z,3.37
2019-01-10T19:23:07.562Z,3.10
2019-01-10T19:25:36.506Z,3.10
2019-01-10T19:28:08.892Z,3.97
2019-01-10T19:31:01.466Z,2.60
2019-01-10T19:33:58.127Z,3.30
2019-01-10T19:36:33.321Z,4.23
2019-01-10T19:39:37.838Z,4.30
2019-01-10T19:42:33.678Z,3.20
2019-01-10T19:45:16.177Z,5.43
2019-01-10T19:47:45.154Z,3.63
2019-01-10T19:50:55.616Z,2.87
2019-01-10T19:53:44.199Z,5.83
2019-01-10T19:56:20.111Z,4.43
2019-01-10T19:59:24.458Z,4.40
2019-01-10T20:02:13.762Z,3.97
2019-01-10T20:04:57.475Z,5.67
2019-01-10T20:07:30.327Z,4.20
2019-01-10T20:10:12.094Z,5.60
2019-01-10T20:12:53.466Z,5.50
2019-01-10T20:15:31.153Z,4.50
2019-01-10T20:18:05.699Z,5.43
2019-01-10T20:20:43.056Z,5.00
2019-01-10T20:23:28.257Z,5.20
2019-01-10T20:25:59.429Z,5.60
2019-01-10T20:28:37.580Z,6.10
2019-01-10T20:31:20.613Z,6.73
2019-01-10T20:34:08.421Z,5.70
2019-01-10T20:37:04.960Z,5.67
2019-01-10T20:39:49.323Z,6.63
2019-01-10T20:42:51.811Z,5.77
2019-01-10T20:45:41.620Z,6.53
2019-01-10T20:48:55.213Z,7.30
2019-01-10T20:51:41.629Z,6.20
2019-01-10T20:54:36.827Z,8.67
2019-01-10T20:57:06.017Z,5.87
2019-01-10T20:59:34.914Z,5.67
2019-01-10T21:02:04.023Z,6.77
2019-01-10T21:04:33.148Z,5.80
2019-01-10T21:07:02.255Z,6.73
2019-01-10T21:09:31.206Z,7.30
2019-01-10T21:12:00.335Z,7.30
2019-01-10T21:14:29.286Z,6.20
2019-01-10T21:16:59.396Z,7.10
2019-01-10T21:19:28.364Z,7.60
2019-01-10T21:21:57.414Z,8.00
2019-01-10T21:24:26.395Z,7.93
2019-01-10T21:26:55.411Z,7.77
2019-01-10T21:29:24.659Z,7.00
2019-01-10T21:31:53.752Z,7.70
2019-01-10T21:34:22.681Z,7.43
2019-01-10T21:36:51.631Z,8.10
2019-01-10T21:39:20.455Z,8.07
2019-01-10T21:41:49.463Z,8.27
2019-01-10T21:44:18.362Z,8.60
2019-01-10T21:46:47.634Z,7.00
2019-01-10T21:49:16.610Z,8.83
2019-01-10T21:51:45.549Z,7.93
2019-01-10T21:54:14.620Z,9.13
2019-01-10T21:56:44.865Z,8.97
2019-01-10T21:59:13.772Z,9.53
2019-01-10T22:01:42.742Z,9.07
2019-01-10T22:04:11.626Z,10.40
2019-01-10T22:06:40.451Z,10.90
2019-01-10T22:09:09.820Z,11.90
2019-01-10T22:11:38.710Z,10.97
2019-01-10T22:14:07.659Z,12.93
2019-01-10T22:16:36.490Z,11.27
2019-01-10T22:19:05.493Z,14.03
2019-01-10T22:21:34.436Z,11.37
2019-01-10T22:24:03.280Z,12.93
2019-01-10T22:26:32.186Z,12.57
2019-01-10T22:29:01.159Z,14.43
2019-01-10T22:31:30.132Z,12.97
2019-01-10T22:33:58.976Z,12.33
2019-01-10T22:36:28.014Z,13.07
2019-01-10T22:38:56.927Z,12.30
2019-01-10T22:41:25.868Z,13.43
2019-01-10T22:43:54.685Z,13.77
2019-01-10T22:46:23.698Z,13.00
2019-01-10T22:48:52.659Z,13.47
2019-01-10T22:51:21.612Z,13.60
2019-01-10T22:53:50.509Z,13.40
2019-01-10T22:56:19.548Z,12.40
2019-01-10T22:58:48.551Z,14.23
2019-01-10T23:01:39.024Z,15.67
2019-01-10T23:04:09.319Z,14.50
2019-01-10T23:06:38.224Z,14.10
2019-01-10T23:09:09.831Z,16.20
2019-01-10T23:11:39.211Z,14.23
2019-01-10T23:14:08.547Z,14.60
2019-01-10T23:16:38.126Z,14.80
2019-01-10T23:19:07.705Z,15.00
2019-01-10T23:21:38.662Z,16.03
2019-01-10T23:24:15.334Z,14.80
2019-01-10T23:26:54.235Z,14.40
2019-01-10T23:29:25.537Z,15.17
2019-01-10T23:31:54.807Z,14.50
2019-01-10T23:34:23.800Z,14.90
2019-01-10T23:36:53.773Z,14.10
2019-01-10T23:39:23.800Z,16.13
2019-01-10T23:41:54.682Z,14.80
2019-01-10T23:44:23.677Z,15.50
2019-01-10T23:46:52.583Z,13.30
2019-01-10T23:49:21.472Z,14.13
2019-01-10T23:51:50.483Z,14.37
2019-01-10T23:54:19.475Z,16.00
2019-01-10T23:56:48.535Z,14.47
2019-01-10T23:59:17.388Z,14.17
